Terminal Aerodrome Forecast
Issued by NWS

Home | Current Version | Previous Version | Text Only | Print | Product List | Glossary On
Versions: 1 2 3 4 5 6 7 8 9 10 11 12 13 14 15 16 17
000
FTUS43 KAPX 261739
TAFTVC
TAF
KTVC 261739Z 2618/2718 12007KT 6SM -SHRA OVC005
     FM270000 00000KT 3SM -SHRA BR OVC006
     FM270200 00000KT 2SM BR VCSH OVC008
     FM271000 31004KT 4SM BR VCSH OVC008
     FM271200 31004KT P6SM OVC008=

USA.gov is the U.S. government's official web portal to all federal, state and local government web resources and services.